createdAt,value
2022-09-15T00:00:26.521Z,98952.66
2022-09-15T00:05:28.421Z,98954.16
2022-09-15T00:10:29.967Z,98959.25
2022-09-15T00:15:31.488Z,98966.03
2022-09-15T00:20:33.295Z,98966.06
2022-09-15T00:25:34.912Z,98975.56
2022-09-15T00:30:41.147Z,98978.03
2022-09-15T00:35:44.956Z,98978.00
2022-09-15T00:40:51.690Z,98986.56
2022-09-15T00:45:53.265Z,98974.47
2022-09-15T00:50:57.043Z,98973.06
2022-09-15T00:55:59.398Z,98975.13
2022-09-15T01:01:02.084Z,98984.75
2022-09-15T01:06:17.101Z,98997.75
2022-09-15T01:11:18.789Z,98995.34
2022-09-15T01:16:29.317Z,98997.00
2022-09-15T01:22:01.792Z,99004.94
2022-09-15T01:27:30.944Z,99002.56
2022-09-15T01:33:05.997Z,99006.75
2022-09-15T01:38:30.668Z,99008.44
2022-09-15T01:43:33.972Z,99013.28
2022-09-15T01:48:36.251Z,98992.31
2022-09-15T01:53:37.840Z,99003.28
2022-09-15T01:58:40.319Z,98996.66
2022-09-15T02:04:00.399Z,99001.63
2022-09-15T02:09:27.657Z,99004.19
2022-09-15T02:14:55.990Z,99002.06
2022-09-15T02:20:05.860Z,98998.13
2022-09-15T02:25:11.861Z,99007.78
2022-09-15T02:30:16.301Z,99013.56
2022-09-15T02:35:18.160Z,99013.56
2022-09-15T02:40:19.796Z,99013.56
2022-09-15T02:45:22.058Z,99019.81
2022-09-15T02:50:26.624Z,99027.38
2022-09-15T02:55:28.997Z,99013.19
2022-09-15T03:00:31.206Z,99014.94
2022-09-15T03:05:32.889Z,99018.66
2022-09-15T03:10:34.662Z,99014.44
2022-09-15T03:15:36.951Z,99016.88
2022-09-15T03:20:38.494Z,99016.50
2022-09-15T03:25:40.004Z,99023.84
2022-09-15T03:30:42.397Z,99018.50
2022-09-15T03:35:46.476Z,99021.16
2022-09-15T03:41:07.542Z,99023.00
2022-09-15T03:46:11.494Z,99018.63
2022-09-15T03:51:13.157Z,99015.06
2022-09-15T03:56:31.275Z,99014.88
2022-09-15T04:01:33.774Z,99025.72
2022-09-15T04:06:35.717Z,99018.28
2022-09-15T04:11:38.207Z,99017.00
2022-09-15T04:16:43.384Z,99018.63
2022-09-15T04:21:47.489Z,99021.56
2022-09-15T04:27:00.376Z,99025.25
2022-09-15T04:32:05.569Z,99019.84
2022-09-15T04:37:07.567Z,99009.91
2022-09-15T04:42:09.160Z,99008.84
2022-09-15T04:47:10.909Z,99019.50
2022-09-15T04:52:12.513Z,99026.00
2022-09-15T04:57:14.051Z,99036.97
2022-09-15T05:02:15.694Z,99035.72
2022-09-15T05:07:18.392Z,99031.69
2022-09-15T05:12:19.924Z,99029.31
2022-09-15T05:17:26.150Z,99037.34
2022-09-15T05:22:31.849Z,99046.50
2022-09-15T05:27:33.808Z,99052.06
2022-09-15T05:32:35.431Z,99045.34
2022-09-15T05:37:36.995Z,99050.53
2022-09-15T05:42:38.606Z,99055.03
2022-09-15T05:47:40.144Z,99065.22
2022-09-15T05:52:41.764Z,99052.63
2022-09-15T05:57:43.458Z,99059.72
2022-09-15T06:02:45.034Z,99057.63
2022-09-15T06:07:46.623Z,99066.72
2022-09-15T06:12:49.062Z,99062.88
2022-09-15T06:17:50.892Z,99070.09
2022-09-15T06:22:56.523Z,99072.78
2022-09-15T06:27:58.027Z,99078.78
2022-09-15T06:32:59.589Z,99072.91
2022-09-15T06:38:01.090Z,99075.63
2022-09-15T06:43:02.660Z,99068.78
2022-09-15T06:48:23.495Z,99062.75
2022-09-15T06:53:26.128Z,99058.00
2022-09-15T06:58:27.676Z,99068.00
2022-09-15T07:03:29.473Z,99071.75
2022-09-15T07:08:31.220Z,99073.28
2022-09-15T07:13:32.871Z,99085.44
2022-09-15T07:18:38.583Z,99081.06
2022-09-15T07:23:43.238Z,99077.41
2022-09-15T07:28:47.408Z,99072.19
2022-09-15T07:33:49.314Z,99083.41
2022-09-15T07:38:51.253Z,99097.25
2022-09-15T07:43:55.279Z,99096.47
2022-09-15T07:48:57.031Z,99108.16
2022-09-15T07:53:58.707Z,99106.47
2022-09-15T07:59:00.850Z,99107.28
2022-09-15T08:04:02.863Z,99118.38
2022-09-15T08:09:04.623Z,99112.31
2022-09-15T08:14:06.451Z,99123.66
2022-09-15T08:19:07.983Z,99117.84
2022-09-15T08:24:09.522Z,99122.69
2022-09-15T08:29:11.414Z,99118.63
2022-09-15T08:34:15.082Z,99127.75
2022-09-15T08:39:16.723Z,99130.72
2022-09-15T08:45:08.142Z,99134.72
2022-09-15T08:50:28.410Z,99141.28
2022-09-15T08:55:41.657Z,99143.16
2022-09-15T09:00:44.660Z,99142.09
2022-09-15T09:06:05.697Z,99143.03
2022-09-15T09:11:16.901Z,99150.94
2022-09-15T09:17:00.371Z,99149.31
2022-09-15T09:22:14.646Z,99152.97
2022-09-15T09:27:19.195Z,99148.47
2022-09-15T09:32:25.080Z,99145.91
2022-09-15T09:37:27.103Z,99145.31
2022-09-15T09:42:30.922Z,99140.34
2022-09-15T09:47:34.912Z,99143.66
2022-09-15T09:52:38.130Z,99139.28
2022-09-15T09:57:40.815Z,99134.78
2022-09-15T10:02:48.413Z,99129.66
2022-09-15T10:07:50.025Z,99128.28
2022-09-15T10:12:55.869Z,99125.25
2022-09-15T10:17:57.840Z,99125.00
2022-09-15T10:23:26.766Z,99131.47
2022-09-15T10:28:28.403Z,99132.22
2022-09-15T10:33:32.646Z,99133.22
2022-09-15T10:38:42.433Z,99142.56
2022-09-15T10:44:02.065Z,99135.66
2022-09-15T10:49:15.796Z,99138.03
2022-09-15T10:54:40.301Z,99134.34
2022-09-15T11:00:05.323Z,99125.69
2022-09-15T11:05:31.767Z,99134.19
2022-09-15T11:10:52.015Z,99123.19
2022-09-15T11:16:08.810Z,99127.84
2022-09-15T11:21:16.054Z,99131.69
2022-09-15T11:26:23.623Z,99119.56
2022-09-15T11:31:28.326Z,99125.06
2022-09-15T11:36:42.058Z,99116.50
2022-09-15T11:41:49.673Z,99119.13
2022-09-15T11:47:12.700Z,99115.84
2022-09-15T11:52:26.812Z,99110.78
2022-09-15T11:57:37.048Z,99116.09
2022-09-15T12:02:46.949Z,99114.44
2022-09-15T12:07:52.901Z,99117.50
2022-09-15T12:12:55.629Z,99114.44
2022-09-15T12:18:01.320Z,99108.22
2022-09-15T12:23:16.452Z,99102.19
2022-09-15T12:28:23.926Z,99110.69
2022-09-15T12:33:54.577Z,99109.41
2022-09-15T12:38:56.288Z,99107.63
2022-09-15T12:44:16.360Z,99111.13
2022-09-15T12:49:19.162Z,99105.00
2022-09-15T12:54:28.141Z,99113.00
2022-09-15T12:59:30.474Z,99109.63
2022-09-15T13:04:40.895Z,99110.38
2022-09-15T13:09:57.389Z,99114.72
2022-09-15T13:15:02.334Z,99102.38
2022-09-15T13:20:10.095Z,99110.84
2022-09-15T13:25:13.725Z,99106.03
2022-09-15T13:30:21.534Z,99120.00
2022-09-15T13:35:49.662Z,99117.16
2022-09-15T13:41:03.012Z,99111.44
2022-09-15T13:46:07.560Z,99103.44
2022-09-15T13:51:15.694Z,99121.41
2022-09-15T13:56:28.132Z,99133.81
2022-09-15T14:01:34.251Z,99120.81
2022-09-15T14:06:41.807Z,99123.59
2022-09-15T14:11:43.908Z,99110.72
2022-09-15T14:16:49.842Z,99122.34
2022-09-15T14:21:56.178Z,99113.84
2022-09-15T14:27:03.356Z,99118.81
2022-09-15T14:32:05.100Z,99122.94
2022-09-15T14:37:12.679Z,99125.72
2022-09-15T14:42:23.011Z,99136.25
2022-09-15T14:47:28.355Z,99135.88
2022-09-15T14:52:33.454Z,99132.06
2022-09-15T14:57:37.510Z,99136.53
2022-09-15T15:03:18.556Z,99124.03
2022-09-15T15:08:32.860Z,99113.00
2022-09-15T15:13:35.617Z,99107.44
2022-09-15T15:18:39.902Z,99121.53
2022-09-15T15:23:46.873Z,99099.75
2022-09-15T15:28:48.621Z,99103.75
2022-09-15T15:33:56.668Z,99102.25
2022-09-15T15:39:04.123Z,99103.34
2022-09-15T15:44:22.372Z,99106.28
2022-09-15T15:49:29.311Z,99105.81
2022-09-15T15:54:33.606Z,99107.75
2022-09-15T15:59:35.142Z,99111.97
2022-09-15T16:04:36.660Z,99107.38
2022-09-15T16:09:38.208Z,99115.13
2022-09-15T16:14:39.731Z,99111.06
2022-09-15T16:19:41.322Z,99119.03
2022-09-15T16:24:43.220Z,99120.69
2022-09-15T16:29:45.168Z,99121.28
2022-09-15T16:34:46.771Z,99120.06
2022-09-15T16:39:49.383Z,99124.75
2022-09-15T16:44:51.827Z,99124.44
2022-09-15T16:49:53.532Z,99121.78
2022-09-15T16:54:56.147Z,99115.63
2022-09-15T16:59:57.761Z,99129.56
2022-09-15T17:04:59.406Z,99124.00
2022-09-15T17:10:01.508Z,99122.75
2022-09-15T17:15:03.179Z,99125.56
2022-09-15T17:20:05.410Z,99124.66
2022-09-15T17:25:30.694Z,99121.69
2022-09-15T17:30:32.643Z,99138.91
2022-09-15T17:35:36.093Z,99148.66
2022-09-15T17:40:37.942Z,99151.63
2022-09-15T17:45:39.640Z,99149.56
2022-09-15T17:50:41.897Z,99147.25
2022-09-15T17:55:43.930Z,99146.56
2022-09-15T18:00:46.503Z,99155.13
2022-09-15T18:05:48.071Z,99153.22
2022-09-15T18:10:49.618Z,99155.56
2022-09-15T18:15:51.410Z,99165.78
2022-09-15T18:20:54.826Z,99168.28
2022-09-15T18:25:56.697Z,99169.63
2022-09-15T18:30:58.754Z,99170.66
2022-09-15T18:36:01.362Z,99175.88
2022-09-15T18:41:04.507Z,99175.72
2022-09-15T18:46:06.224Z,99180.06
2022-09-15T18:51:08.789Z,99180.06
2022-09-15T18:56:11.628Z,99184.03
2022-09-15T19:01:13.295Z,99190.06
2022-09-15T19:06:14.960Z,99200.47
2022-09-15T19:11:17.276Z,99199.91
2022-09-15T19:16:22.769Z,99207.09
2022-09-15T19:21:27.339Z,99202.16
2022-09-15T19:26:29.517Z,99206.28
2022-09-15T19:31:31.443Z,99197.13
2022-09-15T19:36:33.291Z,99199.25
2022-09-15T19:41:34.823Z,99204.50
2022-09-15T19:46:36.421Z,99210.50
2022-09-15T19:51:38.244Z,99212.56
2022-09-15T19:56:39.821Z,99218.81
2022-09-15T20:01:41.436Z,99217.16
2022-09-15T20:06:43.014Z,99218.22
2022-09-15T20:11:44.951Z,99223.63
2022-09-15T20:16:46.562Z,99225.91
2022-09-15T20:21:51.120Z,99234.44
2022-09-15T20:26:53.479Z,99236.69
2022-09-15T20:31:55.034Z,99234.19
2022-09-15T20:36:56.608Z,99222.56
2022-09-15T20:41:58.167Z,99225.91
2022-09-15T20:46:59.831Z,99225.09
2022-09-15T20:52:01.428Z,99215.53
2022-09-15T20:57:03.561Z,99235.66
2022-09-15T21:02:06.096Z,99234.84
2022-09-15T21:07:07.686Z,99244.81
2022-09-15T21:12:09.729Z,99247.50
2022-09-15T21:17:11.357Z,99247.28
2022-09-15T21:22:12.989Z,99258.03
2022-09-15T21:27:26.875Z,99263.50
2022-09-15T21:32:30.117Z,99245.63
2022-09-15T21:37:32.189Z,99257.03
2022-09-15T21:42:34.811Z,99258.28
2022-09-15T21:47:36.330Z,99259.53
2022-09-15T21:52:38.166Z,99278.66
2022-09-15T21:57:39.788Z,99287.19
2022-09-15T22:02:41.463Z,99279.94
2022-09-15T22:07:42.978Z,99282.84
2022-09-15T22:12:44.570Z,99292.38
2022-09-15T22:17:46.098Z,99296.31
2022-09-15T22:22:47.658Z,99298.16
2022-09-15T22:27:49.300Z,99276.59
2022-09-15T22:32:50.864Z,99278.69
2022-09-15T22:37:52.435Z,99287.41
2022-09-15T22:42:53.962Z,99299.25
2022-09-15T22:47:56.027Z,99295.72
2022-09-15T22:52:57.546Z,99303.22
2022-09-15T22:57:59.197Z,99299.06
2022-09-15T23:03:00.828Z,99292.81
2022-09-15T23:08:02.587Z,99301.94
2022-09-15T23:13:04.188Z,99306.31
2022-09-15T23:18:05.791Z,99303.63
2022-09-15T23:23:07.370Z,99311.50
2022-09-15T23:28:09.045Z,99322.09
2022-09-15T23:33:10.711Z,99310.28
2022-09-15T23:38:13.032Z,99318.16
2022-09-15T23:43:15.507Z,99310.47
2022-09-15T23:48:17.053Z,99313.78
2022-09-15T23:53:18.803Z,99303.63
2022-09-15T23:58:20.449Z,99303.00
